createdAt,value
2022-08-26T00:01:10.673Z,59.34
2022-08-26T00:03:16.474Z,59.10
2022-08-26T00:05:24.263Z,58.95
2022-08-26T00:07:29.172Z,59.05
2022-08-26T00:09:37.267Z,59.91
2022-08-26T00:11:44.141Z,59.76
2022-08-26T00:13:49.663Z,60.24
2022-08-26T00:15:54.687Z,60.65
2022-08-26T00:18:00.577Z,60.55
2022-08-26T00:20:06.285Z,60.62
2022-08-26T00:22:14.095Z,60.66
2022-08-26T00:24:26.591Z,60.48
2022-08-26T00:26:33.661Z,60.36
2022-08-26T00:28:38.529Z,60.38
2022-08-26T00:30:48.143Z,60.68
2022-08-26T00:32:57.003Z,60.48
2022-08-26T00:35:01.904Z,60.67
2022-08-26T00:37:08.946Z,60.93
2022-08-26T00:39:17.924Z,61.26
2022-08-26T00:41:23.646Z,61.50
2022-08-26T00:43:29.097Z,61.43
2022-08-26T00:45:41.090Z,61.56
2022-08-26T00:47:50.767Z,62.09
2022-08-26T00:49:56.725Z,61.60
2022-08-26T00:52:05.142Z,61.95
2022-08-26T00:54:19.176Z,62.22
2022-08-26T00:56:29.455Z,62.10
2022-08-26T00:58:36.665Z,62.29
2022-08-26T01:00:41.778Z,61.99
2022-08-26T01:02:51.832Z,62.28
2022-08-26T01:04:58.987Z,62.58
2022-08-26T01:07:06.447Z,62.54
2022-08-26T01:09:11.937Z,62.08
2022-08-26T01:11:19.573Z,62.00
2022-08-26T01:13:24.644Z,62.36
2022-08-26T01:15:33.388Z,62.44
2022-08-26T01:17:40.225Z,62.08
2022-08-26T01:19:48.775Z,62.09
2022-08-26T01:21:59.748Z,61.69
2022-08-26T01:24:08.406Z,62.07
2022-08-26T01:26:20.218Z,62.29
2022-08-26T01:28:30.274Z,61.98
2022-08-26T01:30:36.853Z,62.49
2022-08-26T01:32:43.232Z,62.65
2022-08-26T01:34:50.059Z,62.64
2022-08-26T01:37:01.188Z,62.67
2022-08-26T01:39:10.211Z,62.65
2022-08-26T01:41:19.981Z,62.79
2022-08-26T01:43:35.724Z,62.61
2022-08-26T01:45:43.794Z,62.50
2022-08-26T01:47:56.463Z,62.18
2022-08-26T01:50:04.990Z,62.35
2022-08-26T01:52:11.329Z,63.19
2022-08-26T01:54:20.657Z,62.96
2022-08-26T01:56:33.266Z,62.75
2022-08-26T01:58:45.733Z,62.99
2022-08-26T02:00:51.429Z,62.63
2022-08-26T02:03:12.837Z,62.70
2022-08-26T02:05:22.774Z,62.49
2022-08-26T02:07:29.137Z,62.77
2022-08-26T02:09:41.305Z,62.78
2022-08-26T02:11:47.190Z,62.86
2022-08-26T02:13:56.983Z,62.95
2022-08-26T02:16:05.362Z,63.36
2022-08-26T02:18:14.317Z,63.25
2022-08-26T02:20:21.966Z,62.93
2022-08-26T02:22:27.175Z,62.77
2022-08-26T02:24:49.517Z,62.92
2022-08-26T02:26:55.372Z,64.03
2022-08-26T02:29:10.218Z,63.98
2022-08-26T02:31:15.614Z,64.37
2022-08-26T02:33:20.644Z,64.46
2022-08-26T02:35:26.681Z,64.49
2022-08-26T02:37:34.032Z,64.89
2022-08-26T02:39:44.009Z,65.16
2022-08-26T02:41:49.410Z,64.92
2022-08-26T02:43:54.276Z,65.15
2022-08-26T02:46:01.729Z,65.15
2022-08-26T02:48:13.575Z,64.71
2022-08-26T02:50:18.375Z,64.66
2022-08-26T02:52:23.601Z,64.65
2022-08-26T02:54:28.214Z,64.79
2022-08-26T02:56:36.339Z,64.78
2022-08-26T02:58:41.370Z,65.15
2022-08-26T03:00:53.006Z,64.94
2022-08-26T03:02:58.669Z,65.38
2022-08-26T03:05:03.529Z,65.17
2022-08-26T03:07:09.550Z,65.59
2022-08-26T03:09:18.823Z,65.42
2022-08-26T03:11:24.023Z,65.40
2022-08-26T03:13:32.935Z,65.68
2022-08-26T03:15:38.504Z,65.60
2022-08-26T03:17:43.764Z,65.80
2022-08-26T03:19:51.819Z,65.62
2022-08-26T03:21:59.210Z,65.64
2022-08-26T03:24:04.112Z,65.84
2022-08-26T03:26:11.041Z,65.84
2022-08-26T03:28:15.998Z,65.48
2022-08-26T03:30:39.282Z,65.80
2022-08-26T03:32:50.407Z,65.80
2022-08-26T03:34:55.406Z,65.32
2022-08-26T03:37:00.658Z,65.30
2022-08-26T03:39:05.625Z,65.52
2022-08-26T03:41:12.406Z,65.22
2022-08-26T03:43:18.813Z,65.26
2022-08-26T03:45:26.456Z,65.26
2022-08-26T03:47:31.353Z,65.73
2022-08-26T03:49:37.042Z,65.63
2022-08-26T03:51:42.238Z,65.90
2022-08-26T03:53:47.365Z,65.68
2022-08-26T03:55:53.196Z,65.67
2022-08-26T03:57:58.121Z,66.08
2022-08-26T04:00:02.997Z,66.22
2022-08-26T04:02:16.298Z,66.66
2022-08-26T04:04:22.831Z,66.55
2022-08-26T04:06:31.223Z,66.46
2022-08-26T04:08:36.057Z,66.47
2022-08-26T04:10:41.148Z,66.37
2022-08-26T04:12:46.009Z,66.63
2022-08-26T04:14:50.910Z,66.42
2022-08-26T04:16:59.294Z,66.41
2022-08-26T04:19:06.913Z,66.52
2022-08-26T04:21:12.754Z,66.68
2022-08-26T04:23:20.325Z,66.74
2022-08-26T04:25:25.289Z,66.54
2022-08-26T04:27:30.930Z,66.53
2022-08-26T04:29:35.873Z,66.78
2022-08-26T04:31:41.402Z,66.56
2022-08-26T04:33:47.778Z,66.65
2022-08-26T04:36:03.268Z,66.87
2022-08-26T04:38:09.278Z,66.63
2022-08-26T04:40:14.655Z,66.86
2022-08-26T04:42:22.800Z,66.91
2022-08-26T04:44:32.594Z,66.87
2022-08-26T04:46:39.787Z,67.04
2022-08-26T04:48:48.967Z,67.19
2022-08-26T04:50:54.011Z,66.99
2022-08-26T04:53:02.233Z,67.21
2022-08-26T04:55:10.411Z,67.28
2022-08-26T04:57:16.882Z,67.00
2022-08-26T04:59:21.821Z,66.74
2022-08-26T05:01:26.979Z,66.88
2022-08-26T05:03:32.181Z,67.08
2022-08-26T05:05:36.958Z,66.83
2022-08-26T05:07:41.795Z,67.11
2022-08-26T05:09:49.238Z,67.27
2022-08-26T05:11:54.452Z,67.31
2022-08-26T05:14:02.223Z,67.21
2022-08-26T05:16:09.073Z,67.53
2022-08-26T05:18:18.251Z,67.53
2022-08-26T05:20:25.757Z,67.18
2022-08-26T05:22:31.199Z,66.64
2022-08-26T05:24:36.424Z,66.58
2022-08-26T05:26:45.853Z,66.22
2022-08-26T05:28:50.685Z,66.67
2022-08-26T05:30:59.781Z,66.18
2022-08-26T05:33:05.450Z,66.50
2022-08-26T05:35:10.986Z,66.40
2022-08-26T05:37:17.145Z,66.49
2022-08-26T05:39:24.599Z,66.42
2022-08-26T05:41:36.290Z,66.30
2022-08-26T05:43:44.247Z,66.56
2022-08-26T05:45:52.219Z,66.71
2022-08-26T05:47:57.173Z,66.42
2022-08-26T05:50:05.547Z,66.63
2022-08-26T05:52:10.489Z,66.22
2022-08-26T05:54:21.325Z,66.57
2022-08-26T05:56:27.988Z,66.63
2022-08-26T05:58:32.871Z,66.72
2022-08-26T06:00:40.374Z,66.39
2022-08-26T06:02:48.448Z,66.30
2022-08-26T06:04:53.483Z,66.18
2022-08-26T06:06:58.610Z,66.04
2022-08-26T06:09:06.527Z,65.94
2022-08-26T06:11:18.639Z,65.74
2022-08-26T06:13:25.619Z,65.61
2022-08-26T06:15:30.705Z,65.46
2022-08-26T06:17:38.590Z,65.16
2022-08-26T06:19:43.479Z,64.81
2022-08-26T06:21:53.942Z,65.10
2022-08-26T06:24:15.791Z,64.58
2022-08-26T06:26:20.703Z,65.03
2022-08-26T06:28:26.043Z,64.50
2022-08-26T06:30:30.914Z,64.33
2022-08-26T06:32:38.748Z,64.17
2022-08-26T06:34:43.968Z,63.90
2022-08-26T06:36:49.999Z,63.00
2022-08-26T06:38:58.986Z,63.22
2022-08-26T06:41:03.819Z,62.91
2022-08-26T06:43:08.967Z,63.12
2022-08-26T06:45:14.017Z,62.98
2022-08-26T06:47:18.910Z,63.06
2022-08-26T06:49:26.676Z,62.92
2022-08-26T06:51:34.622Z,62.56
2022-08-26T06:53:41.119Z,62.29
2022-08-26T06:55:48.252Z,62.57
2022-08-26T06:57:57.179Z,61.98
2022-08-26T07:00:04.782Z,61.88
2022-08-26T07:02:10.510Z,62.12
2022-08-26T07:04:22.485Z,61.16
2022-08-26T07:06:31.216Z,61.16
2022-08-26T07:08:36.730Z,61.02
2022-08-26T07:10:42.562Z,60.92
2022-08-26T07:12:49.133Z,60.52
2022-08-26T07:14:54.029Z,60.09
2022-08-26T07:16:59.522Z,59.66
2022-08-26T07:19:11.087Z,58.62
2022-08-26T07:21:18.419Z,58.49
2022-08-26T07:23:26.274Z,58.44
2022-08-26T07:25:31.227Z,58.14
2022-08-26T07:27:37.506Z,57.81
2022-08-26T07:29:44.882Z,57.86
2022-08-26T07:31:49.787Z,57.51
2022-08-26T07:33:54.612Z,57.59
2022-08-26T07:35:59.506Z,57.69
2022-08-26T07:38:06.741Z,57.48
2022-08-26T07:40:14.603Z,57.10
2022-08-26T07:42:22.121Z,57.37
2022-08-26T07:44:27.362Z,57.71
2022-08-26T07:46:32.260Z,57.34
2022-08-26T07:48:37.916Z,57.25
2022-08-26T07:50:49.224Z,57.65
2022-08-26T07:52:56.182Z,57.26
2022-08-26T07:55:04.554Z,57.20
2022-08-26T07:57:12.018Z,56.78
2022-08-26T07:59:17.819Z,56.83
2022-08-26T08:01:23.784Z,56.75
2022-08-26T08:03:28.971Z,56.24
2022-08-26T08:05:36.896Z,56.29
2022-08-26T08:07:47.276Z,56.24
2022-08-26T08:09:52.251Z,56.24
2022-08-26T08:11:57.215Z,55.75
2022-08-26T08:14:08.508Z,55.59
2022-08-26T08:16:17.033Z,55.24
2022-08-26T08:18:23.416Z,55.52
2022-08-26T08:20:30.101Z,55.28
2022-08-26T08:22:35.640Z,54.96
2022-08-26T08:24:42.826Z,54.74
2022-08-26T08:26:47.869Z,53.57
2022-08-26T08:28:53.401Z,53.21
2022-08-26T08:31:02.375Z,53.07
2022-08-26T08:33:08.576Z,53.07
2022-08-26T08:35:17.530Z,52.93
2022-08-26T08:37:23.111Z,53.16
2022-08-26T08:39:29.127Z,52.83
2022-08-26T08:41:46.823Z,52.13
2022-08-26T08:43:53.855Z,52.61
2022-08-26T08:46:07.051Z,52.36
2022-08-26T08:48:17.373Z,51.65
2022-08-26T08:50:28.940Z,51.48
2022-08-26T08:52:37.967Z,50.94
2022-08-26T08:54:42.916Z,51.11
2022-08-26T08:56:55.500Z,50.70
2022-08-26T08:59:15.618Z,50.77
2022-08-26T09:01:31.017Z,50.79
2022-08-26T09:03:55.760Z,50.40
2022-08-26T09:06:04.490Z,50.34
2022-08-26T09:08:14.704Z,49.85
2022-08-26T09:10:32.271Z,49.70
2022-08-26T09:12:38.149Z,49.48
2022-08-26T09:14:43.327Z,48.81
2022-08-26T09:17:02.503Z,48.62
2022-08-26T09:19:18.825Z,48.94
2022-08-26T09:21:26.197Z,49.07
2022-08-26T09:23:33.276Z,49.08
2022-08-26T09:25:49.487Z,48.84
2022-08-26T09:27:55.873Z,48.79
2022-08-26T09:30:02.505Z,48.92
2022-08-26T09:32:24.347Z,49.43
2022-08-26T09:34:31.188Z,48.96
2022-08-26T09:36:41.158Z,49.08
2022-08-26T09:38:46.832Z,48.32
2022-08-26T09:40:59.671Z,48.19
2022-08-26T09:43:23.204Z,48.43
2022-08-26T09:45:31.841Z,48.32
2022-08-26T09:47:42.170Z,47.94
2022-08-26T09:49:47.459Z,48.14
2022-08-26T09:52:07.452Z,47.57
2022-08-26T09:54:30.533Z,47.63
2022-08-26T09:56:39.350Z,46.92
2022-08-26T09:58:47.227Z,46.93
2022-08-26T10:00:58.644Z,46.63
2022-08-26T10:03:09.756Z,46.52
2022-08-26T10:05:31.201Z,46.21
2022-08-26T10:07:44.920Z,46.35
2022-08-26T10:09:51.752Z,46.76
2022-08-26T10:11:59.049Z,47.02
2022-08-26T10:14:07.803Z,46.37
2022-08-26T10:16:20.230Z,46.45
2022-08-26T10:18:34.135Z,46.23
2022-08-26T10:20:44.574Z,45.88
2022-08-26T10:22:58.130Z,46.01
2022-08-26T10:25:08.322Z,45.94
2022-08-26T10:27:25.772Z,45.37
2022-08-26T10:29:36.679Z,45.77
2022-08-26T10:31:45.467Z,44.94
2022-08-26T10:33:58.635Z,44.59
2022-08-26T10:36:39.284Z,44.27
2022-08-26T10:38:51.811Z,43.71
2022-08-26T10:41:03.269Z,43.47
2022-08-26T10:43:20.915Z,43.03
2022-08-26T10:45:30.255Z,42.50
2022-08-26T10:47:41.266Z,42.33
2022-08-26T10:49:50.031Z,42.02
2022-08-26T10:52:05.492Z,41.58
2022-08-26T10:54:27.343Z,41.49
2022-08-26T10:56:46.582Z,41.90
2022-08-26T10:59:00.878Z,41.62
2022-08-26T11:01:26.656Z,41.50
2022-08-26T11:03:39.994Z,41.68
2022-08-26T11:05:47.546Z,42.14
2022-08-26T11:07:56.264Z,41.75
2022-08-26T11:10:03.624Z,41.74
2022-08-26T11:12:10.002Z,41.08
2022-08-26T11:14:46.186Z,40.43
2022-08-26T11:17:00.223Z,40.12
2022-08-26T11:19:05.281Z,40.17
2022-08-26T11:21:49.568Z,39.84
2022-08-26T11:23:58.367Z,39.38
2022-08-26T11:26:35.774Z,39.93
2022-08-26T11:28:45.769Z,39.43
2022-08-26T11:30:58.218Z,39.38
2022-08-26T11:33:03.563Z,39.51
2022-08-26T11:35:12.211Z,39.23
2022-08-26T11:39:38.939Z,38.93
2022-08-26T11:41:47.301Z,39.25
2022-08-26T11:43:53.026Z,38.75
2022-08-26T11:46:05.459Z,38.79
2022-08-26T11:48:18.476Z,38.91
2022-08-26T11:50:26.233Z,37.92
2022-08-26T11:52:31.216Z,38.42
2022-08-26T11:54:40.118Z,38.00
2022-08-26T11:56:47.030Z,38.21
2022-08-26T11:58:59.735Z,38.08
2022-08-26T12:01:09.776Z,38.56
2022-08-26T12:03:22.997Z,38.02
2022-08-26T12:05:32.185Z,38.45
2022-08-26T12:07:38.345Z,37.62
2022-08-26T12:10:00.507Z,37.66
2022-08-26T12:12:16.160Z,37.11
2022-08-26T12:14:24.337Z,37.08
2022-08-26T12:16:31.113Z,36.86
2022-08-26T12:18:38.868Z,36.67
2022-08-26T12:20:54.242Z,36.49
2022-08-26T12:23:00.305Z,37.07
2022-08-26T12:25:11.361Z,36.78
2022-08-26T12:27:20.601Z,36.83
2022-08-26T12:29:28.913Z,37.00
2022-08-26T12:31:35.786Z,37.02
2022-08-26T12:33:41.448Z,36.97
2022-08-26T12:35:47.729Z,36.74
2022-08-26T12:37:56.153Z,36.92
2022-08-26T12:40:30.760Z,36.82
2022-08-26T12:42:44.221Z,36.49
2022-08-26T12:44:54.076Z,36.56
2022-08-26T12:47:05.453Z,36.38
2022-08-26T12:49:10.743Z,36.48
2022-08-26T12:51:25.724Z,36.24
2022-08-26T12:53:32.626Z,35.95
2022-08-26T12:55:44.040Z,35.75
2022-08-26T12:57:49.509Z,35.91
2022-08-26T12:59:54.473Z,36.10
2022-08-26T13:01:59.417Z,36.46
2022-08-26T13:04:04.684Z,36.21
2022-08-26T13:06:15.607Z,36.43
2022-08-26T13:08:29.108Z,36.32
2022-08-26T13:10:41.589Z,36.32
2022-08-26T13:12:46.887Z,35.70
2022-08-26T13:14:51.818Z,35.71
2022-08-26T13:16:56.842Z,35.78
2022-08-26T13:19:04.083Z,35.84
2022-08-26T13:21:15.915Z,34.71
2022-08-26T13:23:21.364Z,34.72
2022-08-26T13:25:26.303Z,34.47
2022-08-26T13:27:33.793Z,34.82
2022-08-26T13:29:39.178Z,35.09
2022-08-26T13:31:48.199Z,35.29
2022-08-26T13:33:53.166Z,35.38
2022-08-26T13:35:58.331Z,35.75
2022-08-26T13:38:03.432Z,36.29
2022-08-26T13:40:09.709Z,35.87
2022-08-26T13:42:14.657Z,36.48
2022-08-26T13:44:22.258Z,41.06
2022-08-26T13:46:27.704Z,48.19
2022-08-26T13:48:34.052Z,50.48
2022-08-26T13:50:39.410Z,54.41
2022-08-26T13:52:44.305Z,55.66
2022-08-26T13:54:48.909Z,57.74
2022-08-26T13:56:53.785Z,72.12
2022-08-26T13:58:59.541Z,88.01
2022-08-26T14:01:07.178Z,100.00
2022-08-26T14:03:13.567Z,100.00
2022-08-26T14:05:18.894Z,100.00
2022-08-26T14:07:24.059Z,92.24
2022-08-26T14:09:29.009Z,88.08
2022-08-26T14:11:41.217Z,90.00
2022-08-26T14:13:59.008Z,88.88
2022-08-26T14:16:07.879Z,87.30
2022-08-26T14:18:17.016Z,96.86
2022-08-26T14:20:27.291Z,86.36
2022-08-26T14:22:33.105Z,100.00
2022-08-26T14:24:38.027Z,100.00
2022-08-26T14:26:43.291Z,100.00
2022-08-26T14:28:48.235Z,100.00
2022-08-26T14:30:58.093Z,100.00
2022-08-26T14:33:05.823Z,100.00
2022-08-26T14:35:13.340Z,100.00
2022-08-26T14:37:18.282Z,100.00
2022-08-26T14:39:23.086Z,100.00
2022-08-26T14:41:28.807Z,100.00
2022-08-26T14:43:33.770Z,100.00
2022-08-26T14:45:43.507Z,100.00
2022-08-26T14:47:53.146Z,100.00
2022-08-26T14:50:00.701Z,100.00
2022-08-26T14:52:06.006Z,100.00
2022-08-26T14:54:14.093Z,100.00
2022-08-26T14:56:19.719Z,100.00
2022-08-26T14:58:24.585Z,100.00
2022-08-26T15:00:33.714Z,100.00
2022-08-26T15:02:39.035Z,100.00
2022-08-26T15:04:44.414Z,100.00
2022-08-26T15:06:53.086Z,100.00
2022-08-26T15:08:58.021Z,100.00
2022-08-26T15:11:03.312Z,100.00
2022-08-26T15:13:08.410Z,95.32
2022-08-26T15:15:14.060Z,91.46
2022-08-26T15:17:18.952Z,91.90
2022-08-26T15:19:23.886Z,91.81
2022-08-26T15:21:28.931Z,90.05
2022-08-26T15:23:36.557Z,89.60
2022-08-26T15:25:41.467Z,89.99
2022-08-26T15:27:46.367Z,90.57
2022-08-26T15:29:51.829Z,88.84
2022-08-26T15:31:57.333Z,97.01
2022-08-26T15:34:04.135Z,96.40
2022-08-26T15:36:11.272Z,99.29
2022-08-26T15:38:16.118Z,99.69
2022-08-26T15:40:23.766Z,94.39
2022-08-26T15:42:28.731Z,97.31
2022-08-26T15:44:34.177Z,93.75
2022-08-26T15:46:39.720Z,96.14
2022-08-26T15:48:45.419Z,93.37
2022-08-26T15:50:54.142Z,91.80
2022-08-26T15:52:59.693Z,91.26
2022-08-26T15:55:04.680Z,87.64
2022-08-26T15:57:14.399Z,82.65
2022-08-26T15:59:21.070Z,86.17
2022-08-26T16:01:27.717Z,84.88
2022-08-26T16:03:33.069Z,85.00
2022-08-26T16:05:40.711Z,84.97
2022-08-26T16:07:45.655Z,85.16
2022-08-26T16:09:54.045Z,84.16
2022-08-26T16:12:00.195Z,83.44
2022-08-26T16:14:08.439Z,82.77
2022-08-26T16:16:13.663Z,83.02
2022-08-26T16:18:20.447Z,82.91
2022-08-26T16:20:28.852Z,82.79
2022-08-26T16:22:33.946Z,82.50
2022-08-26T16:24:39.687Z,82.96
2022-08-26T16:26:46.250Z,82.37
2022-08-26T16:28:51.436Z,81.96
2022-08-26T16:30:59.098Z,82.72
2022-08-26T16:33:03.978Z,82.01
2022-08-26T16:35:10.157Z,81.93
2022-08-26T16:37:14.998Z,81.41
2022-08-26T16:39:19.967Z,81.17
2022-08-26T16:41:25.649Z,80.93
2022-08-26T16:43:31.143Z,79.93
2022-08-26T16:45:38.250Z,80.11
2022-08-26T16:47:49.814Z,79.78
2022-08-26T16:49:54.833Z,79.92
2022-08-26T16:51:59.851Z,79.25
2022-08-26T16:54:05.878Z,79.41
2022-08-26T16:56:17.069Z,80.47
2022-08-26T16:58:22.801Z,79.78
2022-08-26T17:00:30.482Z,79.79
2022-08-26T17:02:35.491Z,79.45
2022-08-26T17:04:47.140Z,80.14
2022-08-26T17:06:55.448Z,80.60
2022-08-26T17:09:00.148Z,81.08
2022-08-26T17:11:05.076Z,80.19
2022-08-26T17:13:10.078Z,80.31
2022-08-26T17:15:15.533Z,80.71
2022-08-26T17:17:20.705Z,81.34
2022-08-26T17:19:25.630Z,80.75
2022-08-26T17:21:35.034Z,82.71
2022-08-26T17:23:41.016Z,85.76
2022-08-26T17:25:46.143Z,87.34
2022-08-26T17:27:50.859Z,87.15
2022-08-26T17:29:55.826Z,86.45
2022-08-26T17:32:00.718Z,85.04
2022-08-26T17:34:05.698Z,84.61
2022-08-26T17:36:12.035Z,84.09
2022-08-26T17:38:19.545Z,82.92
2022-08-26T17:40:29.267Z,81.98
2022-08-26T17:42:34.283Z,80.45
2022-08-26T17:44:39.227Z,80.14
2022-08-26T17:46:44.145Z,81.33
2022-08-26T17:48:49.765Z,79.93
2022-08-26T17:50:54.832Z,80.47
2022-08-26T17:53:00.466Z,79.25
2022-08-26T17:55:08.934Z,80.31
2022-08-26T17:57:13.768Z,81.09
2022-08-26T17:59:19.019Z,81.61
2022-08-26T18:01:26.166Z,81.79
2022-08-26T18:03:31.267Z,81.46
2022-08-26T18:05:36.262Z,81.33
2022-08-26T18:07:44.089Z,81.72
2022-08-26T18:09:49.264Z,81.59
2022-08-26T18:11:57.231Z,81.63
2022-08-26T18:14:02.835Z,81.82
2022-08-26T18:16:09.038Z,81.81
2022-08-26T18:18:14.542Z,82.03
2022-08-26T18:20:22.662Z,81.75
2022-08-26T18:22:27.649Z,82.10
2022-08-26T18:24:32.938Z,81.59
2022-08-26T18:26:44.637Z,82.39
2022-08-26T18:28:52.592Z,82.77
2022-08-26T18:30:57.533Z,83.34
2022-08-26T18:33:03.188Z,82.94
2022-08-26T18:35:09.014Z,83.11
2022-08-26T18:37:14.765Z,83.17
2022-08-26T18:39:22.165Z,82.86
2022-08-26T18:41:30.339Z,82.04
2022-08-26T18:43:36.317Z,82.19
2022-08-26T18:45:43.916Z,82.16
2022-08-26T18:47:48.881Z,81.94
2022-08-26T18:49:53.816Z,81.57
2022-08-26T18:51:58.802Z,81.60
2022-08-26T18:54:06.985Z,82.26
2022-08-26T18:56:13.258Z,82.46
2022-08-26T18:58:20.545Z,82.46
2022-08-26T19:00:25.743Z,82.40
2022-08-26T19:02:33.412Z,82.16
2022-08-26T19:04:38.440Z,81.75
2022-08-26T19:06:44.225Z,81.67
2022-08-26T19:08:50.196Z,81.55
2022-08-26T19:10:55.195Z,81.56
2022-08-26T19:13:02.402Z,81.88
2022-08-26T19:15:08.670Z,81.66
2022-08-26T19:17:14.385Z,81.92
2022-08-26T19:19:23.915Z,81.48
2022-08-26T19:21:28.793Z,81.68
2022-08-26T19:23:34.099Z,81.04
2022-08-26T19:25:43.362Z,81.13
2022-08-26T19:27:48.473Z,80.97
2022-08-26T19:29:53.090Z,80.68
2022-08-26T19:31:58.791Z,81.23
2022-08-26T19:34:05.401Z,81.27
2022-08-26T19:36:17.495Z,80.76
2022-08-26T19:38:22.382Z,80.71
2022-08-26T19:40:27.570Z,80.93
2022-08-26T19:42:32.455Z,80.37
2022-08-26T19:44:49.786Z,81.00
2022-08-26T19:46:54.939Z,81.45
2022-08-26T19:49:00.771Z,81.48
2022-08-26T19:51:05.967Z,80.77
2022-08-26T19:53:13.493Z,80.90
2022-08-26T19:55:20.927Z,81.71
2022-08-26T19:57:25.856Z,82.48
2022-08-26T19:59:33.098Z,83.29
2022-08-26T20:01:38.243Z,83.32
2022-08-26T20:03:45.134Z,83.43
2022-08-26T20:05:50.143Z,82.89
2022-08-26T20:07:55.335Z,82.94
2022-08-26T20:10:03.603Z,82.07
2022-08-26T20:12:10.650Z,82.27
2022-08-26T20:14:16.794Z,81.42
2022-08-26T20:16:23.136Z,81.04
2022-08-26T20:18:40.896Z,81.00
2022-08-26T20:20:58.257Z,80.64
2022-08-26T20:23:05.273Z,80.19
2022-08-26T20:25:13.522Z,80.87
2022-08-26T20:27:18.475Z,82.74
2022-08-26T20:29:23.385Z,83.61
2022-08-26T20:31:30.030Z,84.13
2022-08-26T20:33:39.854Z,85.77
2022-08-26T20:35:51.595Z,84.88
2022-08-26T20:37:56.575Z,84.32
2022-08-26T20:40:01.271Z,83.98
2022-08-26T20:42:20.026Z,84.14
2022-08-26T20:44:25.746Z,84.81
2022-08-26T20:46:31.177Z,84.91
2022-08-26T20:48:36.263Z,84.31
2022-08-26T20:50:41.828Z,83.94
2022-08-26T20:52:46.849Z,84.48
2022-08-26T20:54:51.763Z,83.81
2022-08-26T20:56:57.683Z,83.60
2022-08-26T20:59:06.808Z,82.60
2022-08-26T21:01:20.055Z,82.12
2022-08-26T21:03:25.818Z,81.91
2022-08-26T21:05:30.736Z,82.05
2022-08-26T21:07:35.654Z,81.53
2022-08-26T21:09:41.379Z,80.73
2022-08-26T21:11:47.683Z,81.33
2022-08-26T21:14:17.100Z,81.00
2022-08-26T21:16:20.297Z,79.88
2022-08-26T21:18:25.225Z,79.26
2022-08-26T21:20:30.631Z,77.41
2022-08-26T21:22:35.589Z,77.37
2022-08-26T21:24:40.482Z,77.11
2022-08-26T21:26:45.970Z,76.97
2022-08-26T21:28:50.939Z,76.85
2022-08-26T21:30:55.595Z,77.67
2022-08-26T21:33:03.166Z,78.27
2022-08-26T21:35:08.976Z,78.33
2022-08-26T21:37:15.358Z,77.77
2022-08-26T21:39:21.987Z,77.94
2022-08-26T21:41:28.036Z,78.89
2022-08-26T21:43:34.944Z,79.27
2022-08-26T21:45:42.811Z,79.15
2022-08-26T21:47:47.902Z,78.86
2022-08-26T21:49:55.880Z,78.68
2022-08-26T21:52:01.729Z,78.18
2022-08-26T21:54:11.416Z,77.63
2022-08-26T21:56:19.129Z,77.19
2022-08-26T21:58:23.985Z,77.12
2022-08-26T22:00:28.847Z,75.67
2022-08-26T22:02:34.739Z,76.69
2022-08-26T22:04:39.607Z,76.56
2022-08-26T22:06:48.879Z,76.65
2022-08-26T22:08:54.117Z,77.05
2022-08-26T22:11:00.131Z,78.04
2022-08-26T22:13:06.499Z,78.93
2022-08-26T22:15:12.639Z,79.50
2022-08-26T22:17:17.707Z,79.24
2022-08-26T22:19:23.461Z,79.04
2022-08-26T22:21:30.654Z,78.29
2022-08-26T22:23:39.257Z,77.96
2022-08-26T22:25:44.131Z,78.74
2022-08-26T22:27:49.029Z,78.50
2022-08-26T22:29:54.160Z,77.71
2022-08-26T22:32:00.040Z,78.26
2022-08-26T22:34:06.484Z,77.51
2022-08-26T22:36:19.004Z,77.20
2022-08-26T22:38:25.796Z,76.42
2022-08-26T22:40:34.826Z,76.65
2022-08-26T22:42:39.871Z,76.08
2022-08-26T22:44:44.744Z,75.97
2022-08-26T22:46:50.294Z,76.46
2022-08-26T22:48:56.031Z,76.24
2022-08-26T22:51:00.952Z,76.81
2022-08-26T22:53:06.397Z,76.47
2022-08-26T22:55:13.145Z,76.18
2022-08-26T22:57:20.643Z,76.51
2022-08-26T22:59:25.590Z,77.31
2022-08-26T23:01:30.958Z,77.25
2022-08-26T23:03:36.426Z,77.00
2022-08-26T23:05:41.978Z,76.98
2022-08-26T23:07:46.821Z,77.06
2022-08-26T23:09:51.725Z,76.62
2022-08-26T23:11:56.726Z,77.10
2022-08-26T23:14:06.278Z,77.80
2022-08-26T23:16:13.582Z,78.22
2022-08-26T23:18:19.151Z,78.05
2022-08-26T23:20:24.081Z,78.87
2022-08-26T23:22:29.084Z,78.42
2022-08-26T23:24:33.995Z,78.06
2022-08-26T23:26:39.322Z,78.62
2022-08-26T23:28:44.230Z,78.40
2022-08-26T23:30:51.746Z,78.53
2022-08-26T23:32:57.092Z,78.52
2022-08-26T23:34:59.694Z,77.81
2022-08-26T23:37:06.760Z,77.94
2022-08-26T23:39:12.954Z,77.68
2022-08-26T23:41:18.110Z,77.34
2022-08-26T23:43:23.141Z,77.49
2022-08-26T23:45:29.448Z,77.72
2022-08-26T23:47:37.497Z,77.62
2022-08-26T23:49:42.517Z,77.86
2022-08-26T23:52:00.016Z,77.27
2022-08-26T23:54:05.150Z,77.21
2022-08-26T23:56:16.510Z,77.21
2022-08-26T23:58:23.152Z,77.81
